Time;durP1;ratioP1;P1;durP2;ratioP2;P2;SDS_P1;SDS_P2;PMS_P1;PMS_P2;Temp;Humidity;BMP_temperature;BMP_pressure;BME280_temperature;BME280_humidity;BME280_pressure;Samples;Min_cycle;Max_cycle;Signal;HPM_P1;HPM_P2
2022/10/30 00:01:45;;;;;;;40.45;22.98;;;;;;;;;;5054462;28;20112;-78
2022/10/30 00:04:34;;;;;;;36.85;21.08;;;;;;;;;;5050366;28;20071;-78
2022/10/30 00:07:11;;;;;;;36.42;22.08;;;;;;;;;;5052378;28;20079;-75
2022/10/30 00:09:37;;;;;;;35.95;22.15;;;;;;;;;;5052542;28;20471;-77
2022/10/30 00:12:03;;;;;;;46.35;22.33;;;;;;;;;;5036499;28;20029;-78
2022/10/30 00:14:29;;;;;;;36.08;22.55;;;;;;;;;;5031541;28;20048;-78
2022/10/30 00:17:01;;;;;;;39.70;23.13;;;;;;;;;;5041001;28;20111;-78
2022/10/30 00:19:29;;;;;;;41.00;23.05;;;;;;;;;;5053567;28;20029;-77
2022/10/30 00:22:09;;;;;;;36.63;23.30;;;;;;;;;;5037532;28;20017;-79
2022/10/30 00:24:35;;;;;;;38.80;23.02;;;;;;;;;;5053248;28;20029;-78
2022/10/30 00:27:01;;;;;;;41.38;24.17;;;;;;;;;;5052175;28;20017;-77
2022/10/30 00:29:28;;;;;;;41.50;23.30;;;;;;;;;;5052937;28;20025;-77
2022/10/30 00:31:56;;;;;;;47.10;22.80;;;;;;;;;;5034966;28;20021;-77
2022/10/30 00:34:23;;;;;;;39.15;23.65;;;;;;;;;;5052795;28;20025;-77
2022/10/30 00:36:52;;;;;;;36.70;22.67;;;;;;;;;;5035703;28;20078;-76
2022/10/30 00:39:34;;;;;;;36.58;22.73;;;;;;;;;;5052102;28;20033;-78
2022/10/30 00:42:04;;;;;;;36.38;23.02;;;;;;;;;;5035719;28;20017;-80
2022/10/30 00:44:37;;;;;;;34.90;21.42;;;;;;;;;;5043708;28;20446;-78
2022/10/30 00:47:05;;;;;;;40.88;21.50;;;;;;;;;;5052644;28;20013;-77
2022/10/30 00:49:37;;;;;;;36.33;20.73;;;;;;;;;;5053748;28;20108;-78
2022/10/30 00:52:16;;;;;;;34.17;21.10;;;;;;;;;;5053352;28;20025;-79
2022/10/30 00:54:48;;;;;;;33.78;21.92;;;;;;;;;;5048179;28;20491;-79
2022/10/30 00:57:14;;;;;;;;;;;;;;;;;;5039698;28;20033;-79
2022/10/30 00:59:45;;;;;;;34.13;19.92;;;;;;;;;;5053528;28;19956;-79
2022/10/30 01:02:11;;;;;;;35.35;20.17;;;;;;;;;;5028720;28;20017;-80
2022/10/30 01:05:05;;;;;;;35.05;20.27;;;;;;;;;;5058566;28;20045;-80
2022/10/30 01:07:31;;;;;;;34.30;19.77;;;;;;;;;;5041986;28;20017;-79
2022/10/30 01:10:00;;;;;;;36.17;19.48;;;;;;;;;;5044386;28;20064;-79
2022/10/30 01:12:29;;;;;;;38.35;21.85;;;;;;;;;;5040588;28;20388;-79
2022/10/30 01:15:06;;;;;;;33.25;18.70;;;;;;;;;;5047563;28;20029;-79
2022/10/30 01:17:50;;;;;;;28.95;18.05;;;;;;;;;;5056705;28;20494;-79
2022/10/30 01:20:49;;;;;;;34.25;18.52;;;;;;;;;;5033463;28;20024;-78
2022/10/30 01:23:36;;;;;;;29.80;17.90;;;;;;;;;;5012083;28;20327;-79
2022/10/30 01:26:23;;;;;;;34.20;17.98;;;;;;;;;;5034008;28;20491;-79
2022/10/30 01:29:11;;;;;;;28.38;17.08;;;;;;;;;;5040051;28;20028;-80
2022/10/30 01:31:58;;;;;;;33.30;18.55;;;;;;;;;;5054214;28;20120;-80
2022/10/30 01:34:43;;;;;;;29.33;16.27;;;;;;;;;;5030203;28;20035;-78
2022/10/30 01:37:31;;;;;;;30.63;16.55;;;;;;;;;;5041750;28;20029;-77
2022/10/30 01:40:03;;;;;;;36.08;18.27;;;;;;;;;;5021639;28;20094;-78
2022/10/30 01:42:53;;;;;;;34.03;17.42;;;;;;;;;;5052919;28;20074;-77
2022/10/30 01:45:50;;;;;;;28.70;18.15;;;;;;;;;;5045578;28;20029;-77
2022/10/30 01:48:37;;;;;;;30.35;17.88;;;;;;;;;;5089918;22;20040;-77
2022/10/30 01:51:26;;;;;;;29.85;17.85;;;;;;;;;;5048982;28;20045;-77
2022/10/30 01:53:55;;;;;;;31.13;17.13;;;;;;;;;;5039852;28;20044;-80
2022/10/30 01:56:50;;;;;;;31.33;18.27;;;;;;;;;;5058199;28;20071;-80
2022/10/30 01:59:51;;;;;;;33.25;19.65;;;;;;;;;;4982533;28;20053;-79
2022/10/30 02:02:46;;;;;;;35.75;22.23;;;;;;;;;;4978341;28;20048;-78
2022/10/30 02:05:24;;;;;;;;;;;;;;;;;;;;;
2022/10/30 02:10:29;;;;;;;38.63;22.17;;;;;;;;;;5221160;23;20087;-78
2022/10/30 02:13:18;;;;;;;41.83;22.40;;;;;;;;;;5050607;28;20049;-77
2022/10/30 02:16:38;;;;;;;;;;;;;;;;;;;;;
2022/10/30 02:19:02;;;;;;;48.05;24.05;;;;;;;;;;5051003;28;20468;-80
2022/10/30 02:28:27;;;;;;;41.13;20.63;;;;;;;;;;5132631;22;20064;-78
2022/10/30 02:34:47;;;;;;;35.20;21.80;;;;;;;;;;4972179;28;20101;-79
2022/10/30 02:44:22;;;;;;;;;;;;;;;;;;;;;
2022/10/30 02:47:04;;;;;;;;;;;;;;;;;;;;;
2022/10/30 02:49:33;;;;;;;37.00;21.63;;;;;;;;;;4982899;28;20041;-80
2022/10/30 02:52:10;;;;;;;33.45;20.75;;;;;;;;;;5028425;28;20037;-80
2022/10/30 02:55:06;;;;;;;33.75;21.00;;;;;;;;;;5030073;28;20017;-80
2022/10/30 02:57:40;;;;;;;31.73;20.27;;;;;;;;;;5044980;28;20029;-79
2022/10/30 03:00:12;;;;;;;33.17;18.40;;;;;;;;;;5039422;28;20026;-77
2022/10/30 03:06:03;;;;;;;32.42;19.67;;;;;;;;;;5038346;28;20476;-78
2022/10/30 03:08:48;;;;;;;;;;;;;;;;;;;;;
2022/10/30 03:11:34;;;;;;;27.20;18.65;;;;;;;;;;5031560;28;20022;-79
2022/10/30 03:14:23;;;;;;;33.92;20.27;;;;;;;;;;5010474;28;20022;-79
2022/10/30 03:19:52;;;;;;;30.80;18.92;;;;;;;;;;5020917;28;20041;-80
2022/10/30 03:22:22;;;;;;;29.40;16.95;;;;;;;;;;5013392;28;20042;-79
2022/10/30 03:33:58;;;;;;;30.45;18.80;;;;;;;;;;5055317;28;20017;-82
2022/10/30 03:39:28;;;;;;;29.88;18.42;;;;;;;;;;5027272;28;20037;-80
2022/10/30 03:42:23;;;;;;;30.58;19.13;;;;;;;;;;5017519;28;20209;-79
2022/10/30 03:45:12;;;;;;;28.75;19.42;;;;;;;;;;5016145;28;20033;-78
2022/10/30 03:53:12;;;;;;;33.22;18.48;;;;;;;;;;5031018;28;20417;-78
2022/10/30 03:56:10;;;;;;;31.35;19.92;;;;;;;;;;5056617;28;20112;-78
2022/10/30 03:58:57;;;;;;;27.92;16.45;;;;;;;;;;5039031;28;20098;-78
2022/10/30 04:01:49;;;;;;;29.17;16.88;;;;;;;;;;4981157;28;20109;-80
2022/10/30 04:04:35;;;;;;;27.77;17.17;;;;;;;;;;5030423;28;20024;-80
2022/10/30 04:07:13;;;;;;;32.45;17.75;;;;;;;;;;5041319;28;20025;-79
2022/10/30 04:13:04;;;;;;;31.50;18.30;;;;;;;;;;5055388;28;20052;-80
2022/10/30 04:22:17;;;;;;;29.55;18.02;;;;;;;;;;5058508;28;20044;-79
2022/10/30 04:24:43;;;;;;;;;;;;;;;;;;5071099;28;20028;-79
2022/10/30 04:27:21;;;;;;;29.05;18.75;;;;;;;;;;5058912;28;19952;-79
2022/10/30 04:33:24;;;;;;;30.65;18.42;;;;;;;;;;5063939;28;20045;-80
2022/10/30 04:35:56;;;;;;;28.23;18.50;;;;;;;;;;5041926;28;20026;-81
2022/10/30 04:38:33;;;;;;;27.58;18.60;;;;;;;;;;5053638;28;20078;-81
2022/10/30 04:46:24;;;;;;;25.52;18.40;;;;;;;;;;5054700;28;20040;-79
2022/10/30 04:58:26;;;;;;;30.75;18.25;;;;;;;;;;5079911;22;20144;-79
2022/10/30 05:01:21;;;;;;;32.70;17.00;;;;;;;;;;5060867;28;20060;-79
2022/10/30 05:04:03;;;;;;;;;;;;;;;;;;;;;
2022/10/30 05:09:19;;;;;;;29.10;17.77;;;;;;;;;;5062703;22;20188;-79
2022/10/30 05:12:06;;;;;;;26.88;18.23;;;;;;;;;;5054006;28;20414;-79
2022/10/30 05:14:46;;;;;;;28.50;18.58;;;;;;;;;;5038131;28;20035;-79
2022/10/30 05:17:13;;;;;;;31.08;18.63;;;;;;;;;;5029548;28;20021;-75
2022/10/30 05:19:39;;;;;;;25.70;17.23;;;;;;;;;;5044869;28;20128;-77
2022/10/30 05:22:08;;;;;;;27.85;16.95;;;;;;;;;;5033342;28;20106;-77
2022/10/30 05:25:04;;;;;;;25.00;16.10;;;;;;;;;;5022508;28;20041;-78
2022/10/30 05:27:43;;;;;;;21.52;14.88;;;;;;;;;;5021525;28;20037;-78
2022/10/30 05:30:35;;;;;;;24.23;16.27;;;;;;;;;;5030794;28;20404;-78
2022/10/30 05:33:14;;;;;;;23.88;15.50;;;;;;;;;;5050045;28;20044;-78
2022/10/30 05:35:58;;;;;;;27.88;15.48;;;;;;;;;;5028888;28;20036;-78
2022/10/30 05:39:06;;;;;;;;;;;;;;;;;;;;;
2022/10/30 05:45:01;;;;;;;30.15;14.55;;;;;;;;;;4968739;28;20027;-78
2022/10/30 05:47:30;;;;;;;24.15;13.60;;;;;;;;;;4974251;28;20029;-80
2022/10/30 05:49:56;;;;;;;26.35;14.95;;;;;;;;;;5041001;28;20025;-80
2022/10/30 05:52:28;;;;;;;22.98;13.77;;;;;;;;;;5036055;28;20099;-79
2022/10/30 05:54:56;;;;;;;;;;;;;;;;;;5030908;28;20047;-80
2022/10/30 05:57:28;;;;;;;25.48;14.73;;;;;;;;;;5024181;28;19916;-78
2022/10/30 06:00:00;;;;;;;23.67;15.60;;;;;;;;;;5036651;28;20029;-79
2022/10/30 06:02:29;;;;;;;28.45;16.55;;;;;;;;;;5037453;28;20036;-78
2022/10/30 06:05:00;;;;;;;23.08;15.88;;;;;;;;;;5033295;28;20033;-79
2022/10/30 06:07:29;;;;;;;24.88;17.15;;;;;;;;;;5029351;28;20390;-79
2022/10/30 06:10:04;;;;;;;26.70;16.95;;;;;;;;;;5038195;28;20041;-81
2022/10/30 06:12:41;;;;;;;29.27;17.10;;;;;;;;;;5049430;28;20028;-81
2022/10/30 06:15:09;;;;;;;24.58;16.73;;;;;;;;;;5032024;28;20059;-81
2022/10/30 06:17:40;;;;;;;29.05;17.02;;;;;;;;;;5025816;28;20067;-79
2022/10/30 06:20:20;;;;;;;26.02;17.05;;;;;;;;;;5033571;28;20086;-78
2022/10/30 06:23:02;;;;;;;29.70;18.27;;;;;;;;;;5041443;28;20025;-78
2022/10/30 06:25:36;;;;;;;28.40;17.48;;;;;;;;;;5026779;28;20120;-78
2022/10/30 06:28:35;;;;;;;29.08;18.92;;;;;;;;;;5031750;28;20032;-79
2022/10/30 06:31:21;;;;;;;26.15;16.45;;;;;;;;;;5023539;28;20268;-79
2022/10/30 06:36:51;;;;;;;25.90;16.95;;;;;;;;;;5035138;28;20040;-77
2022/10/30 06:39:26;;;;;;;26.17;17.23;;;;;;;;;;5028336;28;20119;-79
2022/10/30 06:41:52;;;;;;;28.25;15.93;;;;;;;;;;5048549;28;20410;-79
2022/10/30 06:44:18;;;;;;;25.00;15.48;;;;;;;;;;5029661;28;20017;-78
2022/10/30 06:46:44;;;;;;;25.02;14.93;;;;;;;;;;5024861;28;20052;-76
2022/10/30 06:49:13;;;;;;;21.40;14.85;;;;;;;;;;5028354;28;20021;-78
2022/10/30 06:51:41;;;;;;;26.73;15.18;;;;;;;;;;5031881;28;20409;-80
2022/10/30 06:54:32;;;;;;;24.88;14.82;;;;;;;;;;5028637;28;20033;-78
2022/10/30 06:56:58;;;;;;;26.65;15.43;;;;;;;;;;5024609;28;20040;-76
2022/10/30 06:59:24;;;;;;;24.73;16.85;;;;;;;;;;5043366;28;20021;-74
2022/10/30 07:01:50;;;;;;;23.52;14.82;;;;;;;;;;5034850;28;20014;-76
2022/10/30 07:04:16;;;;;;;25.48;14.98;;;;;;;;;;5046007;28;20021;-75
2022/10/30 07:06:42;;;;;;;24.23;14.63;;;;;;;;;;5043036;28;20032;-76
2022/10/30 07:09:08;;;;;;;24.85;15.00;;;;;;;;;;5041095;28;20037;-75
2022/10/30 07:11:34;;;;;;;24.92;14.45;;;;;;;;;;5034206;28;20514;-75
2022/10/30 07:14:00;;;;;;;21.92;13.82;;;;;;;;;;5048766;28;20115;-76
2022/10/30 07:16:26;;;;;;;20.73;12.80;;;;;;;;;;5054182;28;20063;-77
2022/10/30 07:18:54;;;;;;;23.92;14.20;;;;;;;;;;5033713;28;20501;-80
2022/10/30 07:21:21;;;;;;;20.48;12.95;;;;;;;;;;5047474;28;20041;-80
2022/10/30 07:23:47;;;;;;;19.10;12.80;;;;;;;;;;5053089;28;20079;-79
2022/10/30 07:26:13;;;;;;;19.90;13.52;;;;;;;;;;5047150;28;20028;-79
2022/10/30 07:28:45;;;;;;;22.50;13.57;;;;;;;;;;5050539;28;20075;-79
2022/10/30 07:31:11;;;;;;;22.35;14.02;;;;;;;;;;5064459;28;20029;-79
2022/10/30 07:33:37;;;;;;;23.13;14.07;;;;;;;;;;5055148;28;20067;-80
2022/10/30 07:36:04;;;;;;;21.23;14.05;;;;;;;;;;5044211;28;20108;-79
2022/10/30 07:38:33;;;;;;;24.02;14.45;;;;;;;;;;5045205;28;20112;-79
2022/10/30 07:40:59;;;;;;;19.30;13.18;;;;;;;;;;5033460;28;20030;-79
2022/10/30 07:43:25;;;;;;;21.60;13.55;;;;;;;;;;5038476;28;20076;-80
2022/10/30 07:46:16;;;;;;;;;;;;;;;;;;;;;
2022/10/30 07:49:10;;;;;;;20.00;14.02;;;;;;;;;;5033013;28;20032;-79
2022/10/30 07:55:30;;;;;;;24.55;13.23;;;;;;;;;;4971485;28;20425;-80
2022/10/30 08:16:30;;;;;;;24.17;14.88;;;;;;;;;;5180678;23;20110;-79
2022/10/30 08:22:03;;;;;;;22.17;14.73;;;;;;;;;;5080543;28;20086;-80
2022/10/30 08:28:13;;;;;;;22.55;14.50;;;;;;;;;;5027182;28;20105;-81
2022/10/30 08:40:21;;;;;;;22.55;15.73;;;;;;;;;;5050569;28;20046;-80
2022/10/30 08:43:28;;;;;;;23.75;15.75;;;;;;;;;;5050872;28;20028;-80
2022/10/30 08:49:21;;;;;;;22.38;15.48;;;;;;;;;;5017512;28;20033;-80
2022/10/30 08:51:55;;;;;;;22.77;14.80;;;;;;;;;;4995927;28;20030;-80
2022/10/30 08:54:46;;;;;;;;;;;;;;;;;;;;;
2022/10/30 08:57:24;;;;;;;22.95;15.98;;;;;;;;;;5041816;28;20049;-80
2022/10/30 09:00:15;;;;;;;25.40;15.65;;;;;;;;;;5045431;28;20112;-81
2022/10/30 09:06:14;;;;;;;22.45;14.90;;;;;;;;;;5055200;28;20047;-81
2022/10/30 09:08:55;;;;;;;22.58;15.95;;;;;;;;;;5038570;28;20097;-80
2022/10/30 09:11:24;;;;;;;20.58;14.60;;;;;;;;;;5025768;28;20025;-80
2022/10/30 09:13:56;;;;;;;19.85;14.65;;;;;;;;;;5041345;28;20018;-81
2022/10/30 09:23:15;;;;;;;22.77;14.45;;;;;;;;;;5039566;28;20033;-81
2022/10/30 09:29:28;;;;;;;25.02;15.57;;;;;;;;;;5030076;28;20040;-79
2022/10/30 09:32:10;;;;;;;22.80;13.73;;;;;;;;;;5011820;28;20042;-80
2022/10/30 09:34:41;;;;;;;22.75;15.68;;;;;;;;;;5120875;22;20023;-79
2022/10/30 09:37:26;;;;;;;22.73;16.17;;;;;;;;;;5072418;28;20041;-80
2022/10/30 09:39:54;;;;;;;26.75;15.13;;;;;;;;;;5043499;28;20283;-79
2022/10/30 09:43:06;;;;;;;;;;;;;;;;;;;;;
2022/10/30 09:48:23;;;;;;;19.55;15.60;;;;;;;;;;5041968;28;20057;-80
2022/10/30 09:51:08;;;;;;;24.55;16.73;;;;;;;;;;5025263;28;20065;-80
2022/10/30 09:54:34;;;;;;;28.40;16.55;;;;;;;;;;5031820;28;20029;-79
2022/10/30 09:56:52;;;;;;;24.00;16.55;;;;;;;;;;5015997;28;20033;-79
2022/10/30 10:03:05;;;;;;;23.98;16.25;;;;;;;;;;5026769;28;20050;-80
2022/10/30 10:05:55;;;;;;;34.90;16.38;;;;;;;;;;5029192;28;20472;-80
2022/10/30 10:09:01;;;;;;;23.05;17.25;;;;;;;;;;5013016;28;20056;-80
2022/10/30 10:11:46;;;;;;;25.10;16.88;;;;;;;;;;5033331;28;20060;-80
2022/10/30 10:17:30;;;;;;;24.35;16.70;;;;;;;;;;5159189;22;20776;-80
2022/10/30 10:20:36;;;;;;;23.02;16.52;;;;;;;;;;5061969;28;20048;-81
2022/10/30 10:23:23;;;;;;;23.05;16.20;;;;;;;;;;5034241;28;20029;-81
2022/10/30 10:25:53;;;;;;;24.77;15.98;;;;;;;;;;5033895;28;20101;-81
2022/10/30 10:28:47;;;;;;;;;;;;;;;;;;;;;
2022/10/30 10:31:58;;;;;;;21.80;15.10;;;;;;;;;;5043905;28;20052;-80
2022/10/30 10:35:02;;;;;;;23.48;15.63;;;;;;;;;;5037100;28;20026;-81
2022/10/30 10:37:40;;;;;;;20.90;13.90;;;;;;;;;;5026535;28;20064;-80
2022/10/30 10:40:15;;;;;;;21.23;13.88;;;;;;;;;;5032884;28;20037;-80
2022/10/30 10:42:47;;;;;;;18.33;13.68;;;;;;;;;;5038657;28;20018;-79
2022/10/30 10:46:07;;;;;;;;;;;;;;;;;;;;;
2022/10/30 10:52:23;;;;;;;22.70;15.20;;;;;;;;;;4947836;29;20043;-81
2022/10/30 11:00:30;;;;;;;20.30;14.48;;;;;;;;;;1170531;23;21075;-79
2022/10/30 11:09:21;;;;;;;22.00;13.75;;;;;;;;;;5090616;22;20076;-81
2022/10/30 11:11:55;;;;;;;20.20;13.95;;;;;;;;;;5055976;28;20033;-81
2022/10/30 11:14:30;;;;;;;17.42;13.02;;;;;;;;;;5015941;28;20383;-80
2022/10/30 11:17:11;;;;;;;18.60;13.75;;;;;;;;;;5040020;28;20041;-81
2022/10/30 11:19:51;;;;;;;;;;;;;;;;;;;;;
2022/10/30 11:22:41;;;;;;;20.13;14.60;;;;;;;;;;5050817;28;20073;-82
2022/10/30 11:25:22;;;;;;;19.75;14.02;;;;;;;;;;5031466;28;20033;-81
2022/10/30 11:28:16;;;;;;;20.10;14.57;;;;;;;;;;5033576;28;20067;-81
2022/10/30 11:30:51;;;;;;;16.88;12.57;;;;;;;;;;4999890;28;20029;-81
2022/10/30 11:33:29;;;;;;;19.42;14.25;;;;;;;;;;5050040;28;20036;-80
2022/10/30 11:36:08;;;;;;;19.30;13.43;;;;;;;;;;5030212;28;20380;-80
2022/10/30 11:38:39;;;;;;;19.50;13.20;;;;;;;;;;5034205;28;20033;-80
2022/10/30 11:41:17;;;;;;;20.48;14.95;;;;;;;;;;5050579;28;20025;-80
2022/10/30 11:43:45;;;;;;;19.75;14.77;;;;;;;;;;5007885;28;20285;-81
2022/10/30 11:46:30;;;;;;;20.95;14.93;;;;;;;;;;5023330;28;20042;-81
2022/10/30 11:48:59;;;;;;;21.52;15.15;;;;;;;;;;5008911;28;20022;-81
2022/10/30 11:51:55;;;;;;;22.08;13.73;;;;;;;;;;5021250;28;20403;-80
2022/10/30 11:54:28;;;;;;;21.50;14.13;;;;;;;;;;5017431;28;20026;-80
2022/10/30 11:57:01;;;;;;;21.33;14.75;;;;;;;;;;5020189;28;20087;-80
2022/10/30 11:59:57;;;;;;;24.67;13.98;;;;;;;;;;5013139;28;20113;-80
2022/10/30 12:02:43;;;;;;;22.67;15.13;;;;;;;;;;5028747;28;20508;-81
2022/10/30 12:05:31;;;;;;;20.85;14.73;;;;;;;;;;5023069;28;20036;-79
2022/10/30 12:08:06;;;;;;;16.52;13.27;;;;;;;;;;5041419;28;20056;-80
2022/10/30 12:10:39;;;;;;;21.13;14.38;;;;;;;;;;5025648;28;20435;-80
2022/10/30 12:13:15;;;;;;;21.13;14.48;;;;;;;;;;5038424;28;20056;-80
2022/10/30 12:15:53;;;;;;;25.08;16.17;;;;;;;;;;5037428;28;20101;-80
2022/10/30 12:18:30;;;;;;;22.13;15.18;;;;;;;;;;5016882;28;20072;-80
2022/10/30 12:21:03;;;;;;;19.52;14.38;;;;;;;;;;5036338;28;20105;-80
2022/10/30 12:23:32;;;;;;;19.33;13.55;;;;;;;;;;5035807;28;20017;-80
2022/10/30 12:26:18;;;;;;;22.52;15.02;;;;;;;;;;5035590;28;20033;-80
2022/10/30 12:28:57;;;;;;;23.00;14.88;;;;;;;;;;5030459;28;20429;-80
2022/10/30 12:35:05;;;;;;;20.98;14.88;;;;;;;;;;5029068;28;20052;-80
2022/10/30 12:37:41;;;;;;;23.08;16.33;;;;;;;;;;4983937;28;20072;-79
2022/10/30 12:40:17;;;;;;;23.33;15.63;;;;;;;;;;5036638;28;20080;-81
2022/10/30 12:43:10;;;;;;;21.77;15.70;;;;;;;;;;5039542;28;20017;-79
2022/10/30 12:45:50;;;;;;;21.40;15.13;;;;;;;;;;5029716;28;20028;-80
2022/10/30 12:48:36;;;;;;;24.50;16.10;;;;;;;;;;5024348;28;20028;-82
2022/10/30 12:51:28;;;;;;;23.08;16.02;;;;;;;;;;5021910;28;20026;-81
2022/10/30 12:54:28;;;;;;;;;;;;;;;;;;;;;
2022/10/30 12:57:16;;;;;;;32.33;16.20;;;;;;;;;;5040909;28;20112;-80
2022/10/30 13:00:01;;;;;;;19.33;15.40;;;;;;;;;;5023204;28;20694;-81
2022/10/30 13:02:53;;;;;;;24.15;16.15;;;;;;;;;;5008645;28;20031;-81
2022/10/30 13:05:38;;;;;;;22.08;15.85;;;;;;;;;;5035894;23;20091;-79
2022/10/30 13:11:46;;;;;;;25.55;16.73;;;;;;;;;;5025837;28;20151;-80
2022/10/30 13:14:45;;;;;;;22.52;15.55;;;;;;;;;;5036651;28;20025;-80
2022/10/30 13:17:13;;;;;;;23.85;16.75;;;;;;;;;;5047443;28;20033;-79
2022/10/30 13:19:47;;;;;;;25.00;16.90;;;;;;;;;;5045086;28;20032;-79
2022/10/30 13:22:21;;;;;;;22.27;15.73;;;;;;;;;;5031794;28;20025;-80
2022/10/30 13:25:05;;;;;;;23.27;15.80;;;;;;;;;;5049921;28;20045;-78
2022/10/30 13:27:40;;;;;;;20.77;15.55;;;;;;;;;;5047671;28;20017;-79
2022/10/30 13:30:14;;;;;;;21.60;14.43;;;;;;;;;;5061760;28;20029;-80
2022/10/30 13:33:03;;;;;;;23.92;16.83;;;;;;;;;;5041835;28;20036;-81
2022/10/30 13:35:34;;;;;;;23.80;15.93;;;;;;;;;;5065458;28;20110;-81
2022/10/30 13:38:08;;;;;;;24.23;15.32;;;;;;;;;;5041939;28;20025;-81
2022/10/30 13:40:46;;;;;;;23.60;15.25;;;;;;;;;;5033446;28;20082;-78
2022/10/30 13:43:15;;;;;;;21.58;15.45;;;;;;;;;;5050930;28;20053;-77
2022/10/30 13:45:55;;;;;;;27.88;15.57;;;;;;;;;;5053044;28;20486;-78
2022/10/30 13:48:21;;;;;;;26.33;16.52;;;;;;;;;;5033824;28;20025;-77
2022/10/30 13:50:53;;;;;;;25.42;14.82;;;;;;;;;;5031751;28;20052;-78
2022/10/30 13:53:22;;;;;;;23.95;15.95;;;;;;;;;;5045542;28;20032;-77
2022/10/30 13:55:51;;;;;;;25.27;15.77;;;;;;;;;;5042047;28;20025;-77
2022/10/30 13:58:39;;;;;;;25.98;15.70;;;;;;;;;;5034384;28;20446;-77
2022/10/30 14:01:22;;;;;;;24.75;16.27;;;;;;;;;;5034962;28;20029;-78
2022/10/30 14:04:12;;;;;;;24.48;17.30;;;;;;;;;;5034591;28;20028;-81
2022/10/30 14:06:42;;;;;;;24.60;15.77;;;;;;;;;;5044825;28;20048;-80
2022/10/30 14:09:23;;;;;;;27.42;17.20;;;;;;;;;;5053842;28;20071;-79
2022/10/30 14:11:49;;;;;;;;;;;;;;;;;;5058288;28;20025;-81
2022/10/30 14:14:27;;;;;;;29.52;17.58;;;;;;;;;;5052508;28;19913;-80
2022/10/30 14:17:11;;;;;;;29.17;17.88;;;;;;;;;;5060057;22;20095;-77
2022/10/30 14:19:56;;;;;;;26.95;16.98;;;;;;;;;;5049352;28;20112;-78
2022/10/30 14:22:25;;;;;;;25.83;16.55;;;;;;;;;;5053958;28;20060;-77
2022/10/30 14:24:53;;;;;;;27.05;17.55;;;;;;;;;;5046842;28;20514;-77
2022/10/30 14:27:25;;;;;;;22.15;17.02;;;;;;;;;;5022111;28;20029;-77
2022/10/30 14:29:52;;;;;;;28.88;17.58;;;;;;;;;;5022172;28;20404;-77
2022/10/30 14:32:18;;;;;;;29.33;16.95;;;;;;;;;;5021491;28;20172;-77
2022/10/30 14:34:44;;;;;;;27.77;17.38;;;;;;;;;;5015572;28;20030;-78
2022/10/30 14:37:10;;;;;;;26.77;18.13;;;;;;;;;;5025522;28;20038;-78
2022/10/30 14:39:43;;;;;;;27.27;17.02;;;;;;;;;;5030784;28;20468;-77
2022/10/30 14:42:27;;;;;;;32.13;19.08;;;;;;;;;;5022026;28;20475;-76
2022/10/30 14:45:10;;;;;;;30.38;18.35;;;;;;;;;;5030560;28;20067;-76
2022/10/30 14:47:48;;;;;;;26.10;17.75;;;;;;;;;;5042181;28;20025;-78
2022/10/30 14:50:17;;;;;;;30.08;17.25;;;;;;;;;;5022602;28;20041;-76
2022/10/30 14:52:52;;;;;;;32.85;17.80;;;;;;;;;;5030857;28;20045;-77
2022/10/30 14:55:30;;;;;;;28.08;18.48;;;;;;;;;;5030057;28;20028;-77
2022/10/30 14:58:02;;;;;;;31.10;19.50;;;;;;;;;;5030159;28;20075;-77
2022/10/30 15:00:29;;;;;;;28.38;18.92;;;;;;;;;;5037911;28;20047;-77
2022/10/30 15:02:55;;;;;;;28.60;19.85;;;;;;;;;;5031800;28;20068;-77
2022/10/30 15:05:36;;;;;;;27.90;18.63;;;;;;;;;;5018697;28;20763;-79
2022/10/30 15:08:20;;;;;;;33.45;19.13;;;;;;;;;;5045979;28;20033;-75
2022/10/30 15:11:09;;;;;;;32.70;19.52;;;;;;;;;;5018907;28;20487;-76
2022/10/30 15:13:35;;;;;;;30.75;20.85;;;;;;;;;;5006028;28;20481;-76
2022/10/30 15:16:04;;;;;;;31.30;20.30;;;;;;;;;;5043292;28;20530;-76
2022/10/30 15:18:30;;;;;;;31.05;20.20;;;;;;;;;;5026241;28;20030;-75
2022/10/30 15:21:00;;;;;;;34.08;21.25;;;;;;;;;;5027722;28;20037;-77
2022/10/30 15:23:31;;;;;;;27.63;19.88;;;;;;;;;;5019962;28;20025;-76
2022/10/30 15:26:02;;;;;;;33.40;20.48;;;;;;;;;;5030066;28;20025;-76
2022/10/30 15:28:29;;;;;;;30.02;20.10;;;;;;;;;;5025139;28;20026;-78
2022/10/30 15:31:06;;;;;;;32.47;20.63;;;;;;;;;;5021601;28;20064;-77
2022/10/30 15:33:36;;;;;;;31.65;21.23;;;;;;;;;;5024072;28;20029;-79
2022/10/30 15:36:02;;;;;;;32.42;21.52;;;;;;;;;;5020622;28;20022;-78
2022/10/30 15:38:28;;;;;;;34.15;21.17;;;;;;;;;;5041725;28;20032;-78
2022/10/30 15:41:04;;;;;;;38.90;22.35;;;;;;;;;;5027391;28;20041;-78
2022/10/30 15:43:35;;;;;;;31.55;22.38;;;;;;;;;;5028915;28;20033;-77
2022/10/30 15:52:59;;;;;;;33.92;23.63;;;;;;;;;;4969099;28;20090;-81
2022/10/30 15:55:35;;;;;;;36.78;21.95;;;;;;;;;;5024646;28;20033;-81
2022/10/30 15:58:10;;;;;;;36.90;23.00;;;;;;;;;;5029160;28;20547;-80
2022/10/30 16:00:41;;;;;;;36.95;23.95;;;;;;;;;;5070968;23;20061;-83
2022/10/30 16:03:07;;;;;;;37.08;23.83;;;;;;;;;;5041603;28;20017;-82
2022/10/30 16:05:34;;;;;;;35.42;24.35;;;;;;;;;;5040721;28;20056;-82
2022/10/30 16:08:01;;;;;;;34.25;24.27;;;;;;;;;;5039017;28;20017;-80
2022/10/30 16:10:30;;;;;;;37.90;24.00;;;;;;;;;;5031214;28;20025;-80
2022/10/30 16:12:57;;;;;;;37.40;23.33;;;;;;;;;;5039487;28;20112;-80
2022/10/30 16:15:30;;;;;;;39.90;24.92;;;;;;;;;;5040505;28;20021;-81
2022/10/30 16:18:28;;;;;;;33.80;21.92;;;;;;;;;;5040327;28;20494;-81
2022/10/30 16:20:56;;;;;;;38.97;24.25;;;;;;;;;;4981077;28;20052;-82
2022/10/30 16:23:29;;;;;;;35.15;23.50;;;;;;;;;;5052383;28;20021;-82
2022/10/30 16:25:56;;;;;;;32.38;22.73;;;;;;;;;;5051719;28;20033;-81
2022/10/30 16:28:32;;;;;;;41.45;25.88;;;;;;;;;;5044392;28;20040;-81
2022/10/30 16:31:03;;;;;;;34.70;23.48;;;;;;;;;;5027314;28;20033;-81
2022/10/30 16:33:29;;;;;;;37.43;24.37;;;;;;;;;;5045411;28;20028;-81
2022/10/30 16:35:56;;;;;;;40.40;24.67;;;;;;;;;;5046162;28;20029;-80
2022/10/30 16:38:23;;;;;;;32.88;22.63;;;;;;;;;;5041488;28;20045;-80
2022/10/30 16:40:50;;;;;;;41.30;26.77;;;;;;;;;;5039028;28;20025;-79
2022/10/30 16:43:26;;;;;;;41.20;26.60;;;;;;;;;;5035482;28;20034;-79
2022/10/30 16:45:53;;;;;;;37.53;25.55;;;;;;;;;;5021292;28;20026;-80
2022/10/30 16:48:26;;;;;;;45.97;25.63;;;;;;;;;;5036237;28;20022;-80
2022/10/30 16:50:52;;;;;;;40.22;26.60;;;;;;;;;;5038368;28;20429;-79
2022/10/30 16:53:25;;;;;;;36.95;26.55;;;;;;;;;;5032969;28;20059;-79
2022/10/30 16:56:09;;;;;;;40.97;26.33;;;;;;;;;;5019661;28;20060;-81
2022/10/30 16:58:35;;;;;;;35.17;24.60;;;;;;;;;;5033374;28;20052;-79
2022/10/30 17:01:03;;;;;;;42.88;28.67;;;;;;;;;;5021783;28;20031;-82
2022/10/30 17:03:33;;;;;;;44.47;27.75;;;;;;;;;;5033025;28;20052;-79
2022/10/30 17:06:00;;;;;;;46.78;28.98;;;;;;;;;;5037519;28;20100;-77
2022/10/30 17:08:31;;;;;;;44.95;28.67;;;;;;;;;;5031529;28;20487;-79
2022/10/30 17:11:06;;;;;;;40.92;27.60;;;;;;;;;;5018382;28;20116;-80
2022/10/30 17:13:42;;;;;;;47.17;29.52;;;;;;;;;;5034037;28;20022;-79
2022/10/30 17:16:33;;;;;;;46.10;28.80;;;;;;;;;;5020241;28;20032;-80
2022/10/30 17:19:00;;;;;;;45.03;30.70;;;;;;;;;;5037792;28;20025;-79
2022/10/30 17:21:26;;;;;;;48.55;30.33;;;;;;;;;;5038757;28;20070;-80
2022/10/30 17:23:54;;;;;;;50.03;32.53;;;;;;;;;;5021152;28;20505;-80
2022/10/30 17:26:20;;;;;;;47.70;30.20;;;;;;;;;;5022193;28;20018;-81
2022/10/30 17:28:49;;;;;;;48.13;29.85;;;;;;;;;;5025013;28;20034;-79
2022/10/30 17:31:42;;;;;;;51.22;31.35;;;;;;;;;;5032549;28;20461;-82
2022/10/30 17:34:10;;;;;;;47.13;30.25;;;;;;;;;;5027805;28;20045;-80
2022/10/30 17:36:40;;;;;;;47.67;30.67;;;;;;;;;;5018715;28;20052;-80
2022/10/30 17:39:06;;;;;;;48.58;29.98;;;;;;;;;;5035698;28;20141;-81
2022/10/30 17:41:32;;;;;;;48.67;30.63;;;;;;;;;;5035229;28;20017;-80
2022/10/30 17:44:00;;;;;;;46.33;30.77;;;;;;;;;;5019110;28;20022;-81
2022/10/30 17:46:26;;;;;;;49.85;29.05;;;;;;;;;;5019197;28;20017;-80
2022/10/30 17:48:52;;;;;;;46.60;30.23;;;;;;;;;;5021529;28;20068;-81
2022/10/30 17:51:18;;;;;;;43.80;29.45;;;;;;;;;;5036281;28;20025;-79
2022/10/30 17:53:46;;;;;;;45.92;29.88;;;;;;;;;;5036030;28;20490;-80
2022/10/30 17:56:18;;;;;;;49.33;29.70;;;;;;;;;;5019353;28;20033;-79
2022/10/30 17:58:44;;;;;;;46.67;29.75;;;;;;;;;;5037230;28;20482;-80
2022/10/30 18:01:16;;;;;;;47.33;30.80;;;;;;;;;;5034687;28;20119;-79
2022/10/30 18:03:42;;;;;;;49.70;29.50;;;;;;;;;;5031904;28;20017;-79
2022/10/30 18:06:15;;;;;;;48.28;29.95;;;;;;;;;;5034378;28;20025;-80
2022/10/30 18:08:41;;;;;;;47.42;31.50;;;;;;;;;;5031938;28;20029;-79
2022/10/30 18:11:09;;;;;;;56.15;30.70;;;;;;;;;;5033815;28;20044;-79
2022/10/30 18:13:35;;;;;;;48.25;31.92;;;;;;;;;;5034014;28;20032;-79
2022/10/30 18:16:01;;;;;;;50.25;32.28;;;;;;;;;;5032442;28;20029;-79
2022/10/30 18:18:27;;;;;;;52.25;31.10;;;;;;;;;;5032734;28;20048;-78
2022/10/30 18:20:53;;;;;;;51.70;31.05;;;;;;;;;;5035423;28;20107;-79
2022/10/30 18:23:21;;;;;;;44.03;30.27;;;;;;;;;;5034719;28;20025;-79